(°C)
-1°
-1°
(°C)
-2°
-2°
-3°
-4°
-5°
-5°
-3°
SSI
SSI
SSI
SSI
SI
SI
SI
(km/h)
9-21
8-19
8-18
8-18
8-18
7-19
7-18
(mm)
0
0
0
0
0
0
0
(%)
0
0
0
0
0
0
0

Podizanje Sunca

/ -36.2°
sun-icon
UV 3
07:01
19:11
Opadajući mesec (220°)
20:32
10:27

METAR za 51.02°S 71.47°I (UACC)

Vreme Uslovi Temperatura/
Tačka rose
Vetar Vidljivost Prognoza Oblaci Pritisak Promena Neobrađeno
VFR 2°C / 0°C 30º 6kt >10km - Clouds and Visibility OK 1026 No Significant change. Runway 04: Clear and dry, , friction coefficient 0.70. UACC 232000Z 03003MPS CAVOK 02/M00 Q1026 R04/0///70 NOSIG RMK QFE738/0984
VFR 2°C / 0°C 40º 8kt >10km - Clouds and Visibility OK 1026 No Significant change. Runway 04: Clear and dry, , friction coefficient 0.70. UACC 231930Z 04004MPS CAVOK 02/M00 Q1026 R04/0///70 NOSIG RMK QFE738/0984
VFR 3°C / 0°C 50º 8kt >10km - Clouds and Visibility OK 1026 No Significant change. Runway 04: Clear and dry, , friction coefficient 0.70. UACC 231900Z 05004MPS CAVOK 03/00 Q1026 R04/0///70 NOSIG RMK QFE737/0983
VFR 1°C / -1°C 60º 6kt >10km - Clouds and Visibility OK 1026 No Significant change. Runway 04: Clear and dry, , friction coefficient 0.70. UACC 231830Z 06003MPS CAVOK 01/M01 Q1026 R04/0///70 NOSIG RMK QFE737/0983
VFR 2°C / 0°C 50º 6kt >10km - Clouds and Visibility OK 1025 No Significant change. Runway 04: Clear and dry, , friction coefficient 0.70. UACC 231800Z 05003MPS CAVOK 02/M00 Q1025 R04/0///70 NOSIG RMK QFE737/0983
VFR 3°C / 0°C 50º 6kt >10km - Clouds and Visibility OK 1025 No Significant change. Runway 04: Clear and dry, , friction coefficient 0.70. UACC 231730Z 05003MPS CAVOK 03/M00 Q1025 R04/0///70 NOSIG RMK QFE737/0983
VFR 5°C / 1°C 30º variable 320º to 050º 6kt >10km - Clouds and Visibility OK 1025 No Significant change. Runway 04: Clear and dry, , friction coefficient 0.70. UACC 231700Z 03003MPS 320V050 CAVOK 05/01 Q1025 R04/0///70 NOSIG RMK QFE737/0983
VFR 5°C / 0°C 30º 8kt >10km - Clouds and Visibility OK 1025 No Significant change. Runway 04: Clear and dry, , friction coefficient 0.70. UACC 231630Z 03004MPS CAVOK 05/00 Q1025 R04/0///70 NOSIG RMK QFE737/0983
VFR 6°C / 0°C 50º 10kt >10km - Clouds and Visibility OK 1024 No Significant change. Runway 04: Clear and dry, , friction coefficient 0.70. UACC 231600Z 05005MPS CAVOK 06/M00 Q1024 R04/0///70 NOSIG RMK QFE737/0982
VFR 6°C / -1°C 40º 10kt >10km - Scattered Clouds 4000ft 1024 No Significant change. Runway 04: Clear and dry, , friction coefficient 0.70. UACC 231530Z 04005MPS 9999 SCT040 06/M01 Q1024 R04/0///70 NOSIG RMK QFE736/0982
VFR 7°C / -1°C 40º 8kt >10km - Scattered Clouds 4000ft 1024 No Significant change. Runway 04: Clear and dry, , friction coefficient 0.70. UACC 231500Z 04004MPS 9999 SCT040 07/M01 Q1024 R04/0///70 NOSIG RMK QFE736/0982
VFR 6°C / -1°C 40º 8kt >10km - Scattered Clouds 4000ft 1024 No Significant change. Runway 04: Clear and dry, , friction coefficient 0.70. UACC 231430Z 04004MPS 9999 SCT040 06/M01 Q1024 R04/0///70 NOSIG RMK QFE736/0982
VFR 6°C / -1°C 50º 10kt >10km - Broken Clouds 4300ft 1023 No Significant change. Runway 04: Clear and dry, , friction coefficient 0.70. UACC 231400Z 05005MPS 9999 BKN043 06/M01 Q1023 R04/0///70 NOSIG RMK QFE736/0981
VFR 7°C / -2°C 40º 10kt >10km - Broken Clouds 4300ft 1023 No Significant change. Runway 04: Clear and dry, , friction coefficient 0.70. UACC 231330Z 04005MPS 9999 BKN043 07/M02 Q1023 R04/0///70 NOSIG RMK QFE736/0981
VFR 7°C / -2°C 60º 8kt >10km - Broken Clouds 4300ft 1023 No Significant change. Runway 04: Clear and dry, , friction coefficient 0.70. UACC 231300Z 06004MPS 9999 BKN043 07/M02 Q1023 R04/0///70 NOSIG RMK QFE735/0981
VFR 9°C / -2°C 70º 8kt >10km - Broken Clouds 4300ft 1023 No Significant change. Runway 04: Clear and dry, , friction coefficient 0.70. UACC 231230Z 07004MPS 9999 BKN043 09/M02 Q1023 R04/0///70 NOSIG RMK QFE735/0981
VFR 9°C / -1°C 60º 10kt >10km - Broken Clouds 4600ft 1023 No Significant change. Runway 04: Clear and dry, , friction coefficient 0.70. UACC 231200Z 06005MPS 9999 BKN046 09/M01 Q1023 R04/0///70 NOSIG RMK QFE735/0981
VFR 9°C / -1°C 40º 12kt >10km - Broken Clouds 4600ft 1023 No Significant change. Runway 04: Clear and dry, , friction coefficient 0.70. UACC 231130Z 04006MPS 9999 BKN046 09/M01 Q1023 R04/0///70 NOSIG RMK QFE735/0981
VFR 10°C / -2°C 60º variable 020º to 100º 8kt >10km - Broken Clouds 4600ft 1022 No Significant change. Runway 04: Clear and dry, , friction coefficient 0.70. UACC 231100Z 06004MPS 020V100 9999 BKN046CB 10/M02 Q1022 R04/0///70 NOSIG RMK QFE735/0980
VFR 9°C / -1°C 40º variable 360º to 070º 12kt >10km - Broken Clouds 4600ft 1023 No Significant change. Runway 04: Clear and dry, , friction coefficient 0.70. UACC 231030Z 04006MPS 360V070 9999 BKN046CB 09/M01 Q1023 R04/0///70 NOSIG RMK QFE735/0980
VFR 10°C / -1°C 70º 10kt >10km - Broken Clouds 4600ft 1022 No Significant change. Runway 04: Clear and dry, , friction coefficient 0.70. UACC 231000Z 07005MPS 9999 BKN046CB 10/M01 Q1022 R04/0///70 NOSIG RMK QFE735/0980
VFR 10°C / 0°C 50º 10kt >10km - Broken Clouds 4600ft 1022 No Significant change. Runway 04: Clear and dry, , friction coefficient 0.70. UACC 230930Z 05005MPS 9999 BKN046CB 10/M00 Q1022 R04/0///70 NOSIG RMK QFE735/0980
VFR 10°C / -1°C 80º variable 030º to 140º 6kt >10km - Scattered Clouds 4600ft 1022 No Significant change. Runway 04: Clear and dry, , friction coefficient 0.70. UACC 230900Z 08003MPS 030V140 9999 SCT046CB 10/M01 Q1022 R04/0///70 NOSIG RMK QFE735/0980
VFR 10°C / 0°C 70º 10kt >10km - Scattered Clouds 4000ft 1022 No Significant change. Runway 04: Clear and dry, , friction coefficient 0.70. UACC 230830Z 07005MPS 9999 SCT040CB 10/00 Q1022 R04/0///70 NOSIG RMK QFE735/0980

VFR

2°C / 0°C

[Više]
Vetar 30º 6kt
Vidljivost >10km
Prognoza -
Oblaci Clouds and Visibility OK
Pritisak 1026
Promena No Significant change. Runway 04: Clear and dry, , friction coefficient 0.70.
Neobrađeno UACC 232000Z 03003MPS CAVOK 02/M00 Q1026 R04/0///70 NOSIG RMK QFE738/0984

VFR

2°C / 0°C

[Više]
Vetar 40º 8kt
Vidljivost >10km
Prognoza -
Oblaci Clouds and Visibility OK
Pritisak 1026
Promena No Significant change. Runway 04: Clear and dry, , friction coefficient 0.70.
Neobrađeno UACC 231930Z 04004MPS CAVOK 02/M00 Q1026 R04/0///70 NOSIG RMK QFE738/0984

VFR

3°C / 0°C

[Više]
Vetar 50º 8kt
Vidljivost >10km
Prognoza -
Oblaci Clouds and Visibility OK
Pritisak 1026
Promena No Significant change. Runway 04: Clear and dry, , friction coefficient 0.70.
Neobrađeno UACC 231900Z 05004MPS CAVOK 03/00 Q1026 R04/0///70 NOSIG RMK QFE737/0983

VFR

1°C / -1°C

[Više]
Vetar 60º 6kt
Vidljivost >10km
Prognoza -
Oblaci Clouds and Visibility OK
Pritisak 1026
Promena No Significant change. Runway 04: Clear and dry, , friction coefficient 0.70.
Neobrađeno UACC 231830Z 06003MPS CAVOK 01/M01 Q1026 R04/0///70 NOSIG RMK QFE737/0983

VFR

2°C / 0°C

[Više]
Vetar 50º 6kt
Vidljivost >10km
Prognoza -
Oblaci Clouds and Visibility OK
Pritisak 1025
Promena No Significant change. Runway 04: Clear and dry, , friction coefficient 0.70.
Neobrađeno UACC 231800Z 05003MPS CAVOK 02/M00 Q1025 R04/0///70 NOSIG RMK QFE737/0983

VFR

3°C / 0°C

[Više]
Vetar 50º 6kt
Vidljivost >10km
Prognoza -
Oblaci Clouds and Visibility OK
Pritisak 1025
Promena No Significant change. Runway 04: Clear and dry, , friction coefficient 0.70.
Neobrađeno UACC 231730Z 05003MPS CAVOK 03/M00 Q1025 R04/0///70 NOSIG RMK QFE737/0983

VFR

5°C / 1°C

[Više]
Vetar 30º variable 320º to 050º 6kt
Vidljivost >10km
Prognoza -
Oblaci Clouds and Visibility OK
Pritisak 1025
Promena No Significant change. Runway 04: Clear and dry, , friction coefficient 0.70.
Neobrađeno UACC 231700Z 03003MPS 320V050 CAVOK 05/01 Q1025 R04/0///70 NOSIG RMK QFE737/0983

VFR

5°C / 0°C

[Više]
Vetar 30º 8kt
Vidljivost >10km
Prognoza -
Oblaci Clouds and Visibility OK
Pritisak 1025
Promena No Significant change. Runway 04: Clear and dry, , friction coefficient 0.70.
Neobrađeno UACC 231630Z 03004MPS CAVOK 05/00 Q1025 R04/0///70 NOSIG RMK QFE737/0983

VFR

6°C / 0°C

[Više]
Vetar 50º 10kt
Vidljivost >10km
Prognoza -
Oblaci Clouds and Visibility OK
Pritisak 1024
Promena No Significant change. Runway 04: Clear and dry, , friction coefficient 0.70.
Neobrađeno UACC 231600Z 05005MPS CAVOK 06/M00 Q1024 R04/0///70 NOSIG RMK QFE737/0982

VFR

6°C / -1°C

[Više]
Vetar 40º 10kt
Vidljivost >10km
Prognoza -
Oblaci Scattered Clouds 4000ft
Pritisak 1024
Promena No Significant change. Runway 04: Clear and dry, , friction coefficient 0.70.
Neobrađeno UACC 231530Z 04005MPS 9999 SCT040 06/M01 Q1024 R04/0///70 NOSIG RMK QFE736/0982

VFR

7°C / -1°C

[Više]
Vetar 40º 8kt
Vidljivost >10km
Prognoza -
Oblaci Scattered Clouds 4000ft
Pritisak 1024
Promena No Significant change. Runway 04: Clear and dry, , friction coefficient 0.70.
Neobrađeno UACC 231500Z 04004MPS 9999 SCT040 07/M01 Q1024 R04/0///70 NOSIG RMK QFE736/0982

VFR

6°C / -1°C

[Više]
Vetar 40º 8kt
Vidljivost >10km
Prognoza -
Oblaci Scattered Clouds 4000ft
Pritisak 1024
Promena No Significant change. Runway 04: Clear and dry, , friction coefficient 0.70.
Neobrađeno UACC 231430Z 04004MPS 9999 SCT040 06/M01 Q1024 R04/0///70 NOSIG RMK QFE736/0982

VFR

6°C / -1°C

[Više]
Vetar 50º 10kt
Vidljivost >10km
Prognoza -
Oblaci Broken Clouds 4300ft
Pritisak 1023
Promena No Significant change. Runway 04: Clear and dry, , friction coefficient 0.70.
Neobrađeno UACC 231400Z 05005MPS 9999 BKN043 06/M01 Q1023 R04/0///70 NOSIG RMK QFE736/0981

VFR

7°C / -2°C

[Više]
Vetar 40º 10kt
Vidljivost >10km
Prognoza -
Oblaci Broken Clouds 4300ft
Pritisak 1023
Promena No Significant change. Runway 04: Clear and dry, , friction coefficient 0.70.
Neobrađeno UACC 231330Z 04005MPS 9999 BKN043 07/M02 Q1023 R04/0///70 NOSIG RMK QFE736/0981

VFR

7°C / -2°C

[Više]
Vetar 60º 8kt
Vidljivost >10km
Prognoza -
Oblaci Broken Clouds 4300ft
Pritisak 1023
Promena No Significant change. Runway 04: Clear and dry, , friction coefficient 0.70.
Neobrađeno UACC 231300Z 06004MPS 9999 BKN043 07/M02 Q1023 R04/0///70 NOSIG RMK QFE735/0981

VFR

9°C / -2°C

[Više]
Vetar 70º 8kt
Vidljivost >10km
Prognoza -
Oblaci Broken Clouds 4300ft
Pritisak 1023
Promena No Significant change. Runway 04: Clear and dry, , friction coefficient 0.70.
Neobrađeno UACC 231230Z 07004MPS 9999 BKN043 09/M02 Q1023 R04/0///70 NOSIG RMK QFE735/0981

VFR

9°C / -1°C

[Više]
Vetar 60º 10kt
Vidljivost >10km
Prognoza -
Oblaci Broken Clouds 4600ft
Pritisak 1023
Promena No Significant change. Runway 04: Clear and dry, , friction coefficient 0.70.
Neobrađeno UACC 231200Z 06005MPS 9999 BKN046 09/M01 Q1023 R04/0///70 NOSIG RMK QFE735/0981

VFR

9°C / -1°C

[Više]
Vetar 40º 12kt
Vidljivost >10km
Prognoza -
Oblaci Broken Clouds 4600ft
Pritisak 1023
Promena No Significant change. Runway 04: Clear and dry, , friction coefficient 0.70.
Neobrađeno UACC 231130Z 04006MPS 9999 BKN046 09/M01 Q1023 R04/0///70 NOSIG RMK QFE735/0981

VFR

10°C / -2°C

[Više]
Vetar 60º variable 020º to 100º 8kt
Vidljivost >10km
Prognoza -
Oblaci Broken Clouds 4600ft
Pritisak 1022
Promena No Significant change. Runway 04: Clear and dry, , friction coefficient 0.70.
Neobrađeno UACC 231100Z 06004MPS 020V100 9999 BKN046CB 10/M02 Q1022 R04/0///70 NOSIG RMK QFE735/0980

VFR

9°C / -1°C

[Više]
Vetar 40º variable 360º to 070º 12kt
Vidljivost >10km
Prognoza -
Oblaci Broken Clouds 4600ft
Pritisak 1023
Promena No Significant change. Runway 04: Clear and dry, , friction coefficient 0.70.
Neobrađeno UACC 231030Z 04006MPS 360V070 9999 BKN046CB 09/M01 Q1023 R04/0///70 NOSIG RMK QFE735/0980

VFR

10°C / -1°C

[Više]
Vetar 70º 10kt
Vidljivost >10km
Prognoza -
Oblaci Broken Clouds 4600ft
Pritisak 1022
Promena No Significant change. Runway 04: Clear and dry, , friction coefficient 0.70.
Neobrađeno UACC 231000Z 07005MPS 9999 BKN046CB 10/M01 Q1022 R04/0///70 NOSIG RMK QFE735/0980

VFR

10°C / 0°C

[Više]
Vetar 50º 10kt
Vidljivost >10km
Prognoza -
Oblaci Broken Clouds 4600ft
Pritisak 1022
Promena No Significant change. Runway 04: Clear and dry, , friction coefficient 0.70.
Neobrađeno UACC 230930Z 05005MPS 9999 BKN046CB 10/M00 Q1022 R04/0///70 NOSIG RMK QFE735/0980

VFR

10°C / -1°C

[Više]
Vetar 80º variable 030º to 140º 6kt
Vidljivost >10km
Prognoza -
Oblaci Scattered Clouds 4600ft
Pritisak 1022
Promena No Significant change. Runway 04: Clear and dry, , friction coefficient 0.70.
Neobrađeno UACC 230900Z 08003MPS 030V140 9999 SCT046CB 10/M01 Q1022 R04/0///70 NOSIG RMK QFE735/0980

VFR

10°C / 0°C

[Više]
Vetar 70º 10kt
Vidljivost >10km
Prognoza -
Oblaci Scattered Clouds 4000ft
Pritisak 1022
Promena No Significant change. Runway 04: Clear and dry, , friction coefficient 0.70.
Neobrađeno UACC 230830Z 07005MPS 9999 SCT040CB 10/00 Q1022 R04/0///70 NOSIG RMK QFE735/0980

TAF za 51.02°S 71.47°I (UACC)

From till


Maximum Temperature 7ºC on . Minimum Temperature -2ºC on .
From till Wind 30º 6kt. Visibility 6000m. Nil Significant Cloud.
Becoming from till Wind 30º 6kt. Visibility 997.791m. Mist . Few Clouds 500ft. Broken Clouds 1100ft.
Temporarly from till Visibility 305.775m. freezing Fog . Obscured Sky.
Becoming from till Wind 30º 6kt. Visibility 10km or more. Scattered Clouds 2000ft. Broken Clouds 10000ft.
Becoming from till Wind variable 4kt. Visibility 10km or more. Scattered Clouds 2000ft. Broken Clouds 10000ft.

Neobrađeno: TAF UACC 231703Z 2318/2418 03003MPS 6000 NSC TX07/2409Z TNM02/2323Z BECMG 2321/2322 1000 BR FEW005 BKN011 TEMPO 2322/2404 0300 FZFG VV001 BECMG 2404/2405 9999 NSW SCT020 BKN100 BECMG 2408/2410 VRB02MPS

Trenutni satelitski snimci i slike kiše za 51.02°S 71.47°I

Marker lokacije postavljen je na 51.02°S 71.47°I. [Više]

Satelitski snimci u realnom vremenu kombinuju vidljivu svetlost tokom dana sa infracrvenim zračenjem tokom noći. Noću slika nije tamna jer infracrveno zračenje može otkriti temperaturne razlike. Nažalost, niski oblaci i magla teško se mogu razlikovati od temperature zemlje tako da mogu biti skoro nevidljivi tokom noći. Meteosat satelitski snimci za Evropu se ažuriraju u realnom vremenu na svakih 5 minuta. Slnimci GOES-16/GOES-17 (Severna i Južna Amerika) and Himawari (Azia) ažuriraju se na svakih 10 minuta.

Autorsko pravo 2021 EUMETSAT / meteoblue. / Autorsko pravo 2021 meteoblue

Radar i padavine kratka prognoza za 51.02°S 71.47°I

Rominjati
Svjetlo
Umjereno
Teška
Vrlo teško
Zdravo

Marker lokacije postavljen je na 51.02°S 71.47°I. Ova animacija prikazuje radar padavina za poslednji sat, kao i 1h prognozu. Пљусак кише или слаб снег може бити невидљив за радар. Интензитет падавина је кодиран у боји, у распону од светло плаве до наранџасте.